sensor_id;sensor_type;location;lat;lon;timestamp;temperature;humidity
4908;DHT22;64375;51.540;7.364;2023-03-16T00:01:50;11.20;68.30
4908;DHT22;64375;51.540;7.364;2023-03-16T00:04:25;11.30;77.60
4908;DHT22;64375;51.540;7.364;2023-03-16T00:06:56;11.60;83.00
4908;DHT22;64375;51.540;7.364;2023-03-16T00:09:38;11.50;78.00
4908;DHT22;64375;51.540;7.364;2023-03-16T00:12:19;11.50;78.90
4908;DHT22;64375;51.540;7.364;2023-03-16T00:14:48;11.40;73.60
4908;DHT22;64375;51.540;7.364;2023-03-16T00:17:18;11.30;72.70
4908;DHT22;64375;51.540;7.364;2023-03-16T00:20:10;11.10;72.20
4908;DHT22;64375;51.540;7.364;2023-03-16T00:22:39;11.30;79.40
4908;DHT22;64375;51.540;7.364;2023-03-16T00:25:15;11.20;73.00
4908;DHT22;64375;51.540;7.364;2023-03-16T00:27:47;10.60;66.80
4908;DHT22;64375;51.540;7.364;2023-03-16T00:30:15;10.50;68.00
4908;DHT22;64375;51.540;7.364;2023-03-16T00:32:48;10.30;67.20
4908;DHT22;64375;51.540;7.364;2023-03-16T00:35:21;10.30;71.40
4908;DHT22;64375;51.540;7.364;2023-03-16T00:37:51;10.60;77.80
4908;DHT22;64375;51.540;7.364;2023-03-16T00:40:22;11.00;84.50
4908;DHT22;64375;51.540;7.364;2023-03-16T00:42:53;11.20;82.00
4908;DHT22;64375;51.540;7.364;2023-03-16T00:45:27;11.30;80.50
4908;DHT22;64375;51.540;7.364;2023-03-16T00:47:58;11.50;83.90
4908;DHT22;64375;51.540;7.364;2023-03-16T00:50:38;11.60;83.10
4908;DHT22;64375;51.540;7.364;2023-03-16T00:53:10;11.60;83.20
4908;DHT22;64375;51.540;7.364;2023-03-16T00:55:40;11.80;84.90
4908;DHT22;64375;51.540;7.364;2023-03-16T00:58:17;11.90;85.20
4908;DHT22;64375;51.540;7.364;2023-03-16T01:00:45;11.70;76.80
4908;DHT22;64375;51.540;7.364;2023-03-16T01:03:19;11.60;79.00
4908;DHT22;64375;51.540;7.364;2023-03-16T01:05:51;11.60;78.80
4908;DHT22;64375;51.540;7.364;2023-03-16T01:08:19;11.40;76.60
4908;DHT22;64375;51.540;7.364;2023-03-16T01:10:48;11.30;75.80
4908;DHT22;64375;51.540;7.364;2023-03-16T01:13:16;11.50;83.30
4908;DHT22;64375;51.540;7.364;2023-03-16T01:16:06;11.60;84.00
4908;DHT22;64375;51.540;7.364;2023-03-16T01:18:37;11.60;82.30
4908;DHT22;64375;51.540;7.364;2023-03-16T01:21:10;11.30;75.10
4908;DHT22;64375;51.540;7.364;2023-03-16T01:23:45;11.30;77.80
4908;DHT22;64375;51.540;7.364;2023-03-16T01:26:28;11.30;79.60
4908;DHT22;64375;51.540;7.364;2023-03-16T01:28:58;11.50;84.30
4908;DHT22;64375;51.540;7.364;2023-03-16T01:31:28;11.60;83.70
4908;DHT22;64375;51.540;7.364;2023-03-16T01:34:06;11.70;84.60
4908;DHT22;64375;51.540;7.364;2023-03-16T01:36:35;11.50;74.50
4908;DHT22;64375;51.540;7.364;2023-03-16T01:39:03;11.10;73.40
4908;DHT22;64375;51.540;7.364;2023-03-16T01:41:47;11.10;75.20
4908;DHT22;64375;51.540;7.364;2023-03-16T01:44:16;11.20;82.50
4908;DHT22;64375;51.540;7.364;2023-03-16T01:46:45;11.40;84.80
4908;DHT22;64375;51.540;7.364;2023-03-16T01:49:19;11.10;76.30
4908;DHT22;64375;51.540;7.364;2023-03-16T01:51:53;11.20;80.30
4908;DHT22;64375;51.540;7.364;2023-03-16T01:54:27;11.20;79.20
4908;DHT22;64375;51.540;7.364;2023-03-16T01:57:09;11.10;74.10
4908;DHT22;64375;51.540;7.364;2023-03-16T01:59:40;11.10;82.90
4908;DHT22;64375;51.540;7.364;2023-03-16T02:02:19;11.30;84.70
4908;DHT22;64375;51.540;7.364;2023-03-16T02:04:51;11.30;81.80
4908;DHT22;64375;51.540;7.364;2023-03-16T02:07:24;11.20;79.20
4908;DHT22;64375;51.540;7.364;2023-03-16T02:09:54;11.00;76.60
4908;DHT22;64375;51.540;7.364;2023-03-16T02:12:24;11.00;79.10
4908;DHT22;64375;51.540;7.364;2023-03-16T02:14:52;11.00;80.50
4908;DHT22;64375;51.540;7.364;2023-03-16T02:17:22;11.20;84.80
4908;DHT22;64375;51.540;7.364;2023-03-16T02:19:58;11.20;81.00
4908;DHT22;64375;51.540;7.364;2023-03-16T02:22:44;11.00;77.40
4908;DHT22;64375;51.540;7.364;2023-03-16T02:25:30;11.00;81.00
4908;DHT22;64375;51.540;7.364;2023-03-16T02:28:27;11.00;79.50
4908;DHT22;64375;51.540;7.364;2023-03-16T02:31:02;11.10;83.80
4908;DHT22;64375;51.540;7.364;2023-03-16T02:33:31;11.40;85.80
4908;DHT22;64375;51.540;7.364;2023-03-16T02:36:02;11.40;85.20
4908;DHT22;64375;51.540;7.364;2023-03-16T02:38:30;11.40;84.00
4908;DHT22;64375;51.540;7.364;2023-03-16T02:41:16;11.40;81.70
4908;DHT22;64375;51.540;7.364;2023-03-16T02:43:53;11.40;84.10
4908;DHT22;64375;51.540;7.364;2023-03-16T02:46:26;11.50;85.70
4908;DHT22;64375;51.540;7.364;2023-03-16T02:48:58;11.70;85.70
4908;DHT22;64375;51.540;7.364;2023-03-16T02:51:29;11.60;82.60
4908;DHT22;64375;51.540;7.364;2023-03-16T02:53:58;11.50;83.50
4908;DHT22;64375;51.540;7.364;2023-03-16T02:56:32;11.60;84.60
4908;DHT22;64375;51.540;7.364;2023-03-16T02:59:00;11.50;83.40
4908;DHT22;64375;51.540;7.364;2023-03-16T03:01:32;11.60;85.70
4908;DHT22;64375;51.540;7.364;2023-03-16T03:04:11;11.70;85.90
4908;DHT22;64375;51.540;7.364;2023-03-16T03:06:39;11.60;84.70
4908;DHT22;64375;51.540;7.364;2023-03-16T03:09:17;11.50;83.80
4908;DHT22;64375;51.540;7.364;2023-03-16T03:11:48;11.40;80.90
4908;DHT22;64375;51.540;7.364;2023-03-16T03:14:22;11.30;80.10
4908;DHT22;64375;51.540;7.364;2023-03-16T03:16:55;11.40;84.90
4908;DHT22;64375;51.540;7.364;2023-03-16T03:19:25;11.40;83.30
4908;DHT22;64375;51.540;7.364;2023-03-16T03:21:56;11.30;83.00
4908;DHT22;64375;51.540;7.364;2023-03-16T03:24:29;11.30;83.90
4908;DHT22;64375;51.540;7.364;2023-03-16T03:26:58;11.30;84.20
4908;DHT22;64375;51.540;7.364;2023-03-16T03:29:29;11.40;84.60
4908;DHT22;64375;51.540;7.364;2023-03-16T03:32:05;11.40;83.50
4908;DHT22;64375;51.540;7.364;2023-03-16T03:34:44;10.90;71.50
4908;DHT22;64375;51.540;7.364;2023-03-16T03:37:12;10.60;73.00
4908;DHT22;64375;51.540;7.364;2023-03-16T03:39:40;9.90;69.60
4908;DHT22;64375;51.540;7.364;2023-03-16T03:42:11;10.00;78.40
4908;DHT22;64375;51.540;7.364;2023-03-16T03:44:48;10.10;82.50
4908;DHT22;64375;51.540;7.364;2023-03-16T03:47:20;10.40;85.50
4908;DHT22;64375;51.540;7.364;2023-03-16T03:49:51;10.60;84.70
4908;DHT22;64375;51.540;7.364;2023-03-16T03:52:27;10.80;85.80
4908;DHT22;64375;51.540;7.364;2023-03-16T03:55:01;10.90;85.90
4908;DHT22;64375;51.540;7.364;2023-03-16T03:57:34;10.90;82.00
4908;DHT22;64375;51.540;7.364;2023-03-16T04:00:04;11.00;85.30
4908;DHT22;64375;51.540;7.364;2023-03-16T04:02:42;11.20;87.00
4908;DHT22;64375;51.540;7.364;2023-03-16T04:05:13;11.20;81.50
4908;DHT22;64375;51.540;7.364;2023-03-16T04:07:41;11.10;81.20
4908;DHT22;64375;51.540;7.364;2023-03-16T04:10:11;11.10;81.10
4908;DHT22;64375;51.540;7.364;2023-03-16T04:12:45;11.00;80.60
4908;DHT22;64375;51.540;7.364;2023-03-16T04:15:13;11.20;85.80
4908;DHT22;64375;51.540;7.364;2023-03-16T04:17:43;11.30;86.20
4908;DHT22;64375;51.540;7.364;2023-03-16T04:20:11;11.30;82.50
4908;DHT22;64375;51.540;7.364;2023-03-16T04:22:50;11.30;84.00
4908;DHT22;64375;51.540;7.364;2023-03-16T04:25:46;11.20;79.70
4908;DHT22;64375;51.540;7.364;2023-03-16T04:28:17;11.10;84.00
4908;DHT22;64375;51.540;7.364;2023-03-16T04:30:45;11.30;85.70
4908;DHT22;64375;51.540;7.364;2023-03-16T04:33:15;11.30;84.10
4908;DHT22;64375;51.540;7.364;2023-03-16T04:35:46;11.30;82.20
4908;DHT22;64375;51.540;7.364;2023-03-16T04:38:20;11.40;83.80
4908;DHT22;64375;51.540;7.364;2023-03-16T04:40:48;11.40;80.00
4908;DHT22;64375;51.540;7.364;2023-03-16T04:43:16;11.70;85.40
4908;DHT22;64375;51.540;7.364;2023-03-16T04:45:44;11.60;79.60
4908;DHT22;64375;51.540;7.364;2023-03-16T04:48:19;11.50;73.80
4908;DHT22;64375;51.540;7.364;2023-03-16T04:50:48;11.70;83.90
4908;DHT22;64375;51.540;7.364;2023-03-16T04:53:25;11.80;82.80
4908;DHT22;64375;51.540;7.364;2023-03-16T04:55:56;12.10;83.80
4908;DHT22;64375;51.540;7.364;2023-03-16T04:58:25;12.00;75.30
4908;DHT22;64375;51.540;7.364;2023-03-16T05:00:58;12.20;80.10
4908;DHT22;64375;51.540;7.364;2023-03-16T05:03:27;12.20;84.10
4908;DHT22;64375;51.540;7.364;2023-03-16T05:05:58;12.20;79.60
4908;DHT22;64375;51.540;7.364;2023-03-16T05:08:32;12.10;80.10
4908;DHT22;64375;51.540;7.364;2023-03-16T05:11:00;12.20;84.10
4908;DHT22;64375;51.540;7.364;2023-03-16T05:13:31;12.00;81.40
4908;DHT22;64375;51.540;7.364;2023-03-16T05:16:00;12.10;84.10
4908;DHT22;64375;51.540;7.364;2023-03-16T05:18:29;12.10;83.30
4908;DHT22;64375;51.540;7.364;2023-03-16T05:21:05;12.20;84.00
4908;DHT22;64375;51.540;7.364;2023-03-16T05:23:45;12.30;83.90
4908;DHT22;64375;51.540;7.364;2023-03-16T05:26:16;12.30;83.60
4908;DHT22;64375;51.540;7.364;2023-03-16T05:28:56;12.40;83.90
4908;DHT22;64375;51.540;7.364;2023-03-16T05:31:24;12.80;83.90
4908;DHT22;64375;51.540;7.364;2023-03-16T05:33:54;13.00;83.10
4908;DHT22;64375;51.540;7.364;2023-03-16T05:36:23;13.10;82.20
4908;DHT22;64375;51.540;7.364;2023-03-16T05:38:51;13.40;82.50
4908;DHT22;64375;51.540;7.364;2023-03-16T05:41:33;13.70;77.60
4908;DHT22;64375;51.540;7.364;2023-03-16T05:44:01;13.80;81.40
4908;DHT22;64375;51.540;7.364;2023-03-16T05:46:35;13.90;81.40
4908;DHT22;64375;51.540;7.364;2023-03-16T05:49:10;13.90;81.20
4908;DHT22;64375;51.540;7.364;2023-03-16T05:51:39;14.00;81.20
4908;DHT22;64375;51.540;7.364;2023-03-16T05:54:07;14.00;80.50
4908;DHT22;64375;51.540;7.364;2023-03-16T05:56:35;14.10;79.10
4908;DHT22;64375;51.540;7.364;2023-03-16T05:59:03;14.40;80.30
4908;DHT22;64375;51.540;7.364;2023-03-16T06:01:40;14.40;80.10
4908;DHT22;64375;51.540;7.364;2023-03-16T06:04:10;14.60;79.90
4908;DHT22;64375;51.540;7.364;2023-03-16T06:06:38;14.50;79.80
4908;DHT22;64375;51.540;7.364;2023-03-16T06:09:05;14.50;79.80
4908;DHT22;64375;51.540;7.364;2023-03-16T06:11:34;14.50;79.90
4908;DHT22;64375;51.540;7.364;2023-03-16T06:14:02;14.40;80.10
4908;DHT22;64375;51.540;7.364;2023-03-16T06:16:32;14.20;80.10
4908;DHT22;64375;51.540;7.364;2023-03-16T06:19:11;14.20;78.30
4908;DHT22;64375;51.540;7.364;2023-03-16T06:21:39;14.20;80.40
4908;DHT22;64375;51.540;7.364;2023-03-16T06:24:12;14.20;80.00
4908;DHT22;64375;51.540;7.364;2023-03-16T06:26:39;14.10;80.70
4908;DHT22;64375;51.540;7.364;2023-03-16T06:29:07;13.90;79.00
4908;DHT22;64375;51.540;7.364;2023-03-16T06:31:35;13.90;80.40
4908;DHT22;64375;51.540;7.364;2023-03-16T06:34:07;14.10;79.20
4908;DHT22;64375;51.540;7.364;2023-03-16T06:36:37;14.20;79.40
4908;DHT22;64375;51.540;7.364;2023-03-16T06:39:06;14.20;78.40
4908;DHT22;64375;51.540;7.364;2023-03-16T06:41:33;14.30;79.20
4908;DHT22;64375;51.540;7.364;2023-03-16T06:44:02;14.40;79.30
4908;DHT22;64375;51.540;7.364;2023-03-16T06:46:31;14.50;79.30
4908;DHT22;64375;51.540;7.364;2023-03-16T06:48:59;14.40;79.10
4908;DHT22;64375;51.540;7.364;2023-03-16T06:51:27;14.50;79.50
4908;DHT22;64375;51.540;7.364;2023-03-16T06:53:57;14.60;79.30
4908;DHT22;64375;51.540;7.364;2023-03-16T06:56:32;14.50;76.30
4908;DHT22;64375;51.540;7.364;2023-03-16T06:59:03;14.40;79.70
4908;DHT22;64375;51.540;7.364;2023-03-16T07:01:30;14.40;74.90
4908;DHT22;64375;51.540;7.364;2023-03-16T07:03:58;14.50;74.70
4908;DHT22;64375;51.540;7.364;2023-03-16T07:06:33;14.70;75.20
4908;DHT22;64375;51.540;7.364;2023-03-16T07:09:12;14.80;76.00
4908;DHT22;64375;51.540;7.364;2023-03-16T07:11:40;14.60;76.30
4908;DHT22;64375;51.540;7.364;2023-03-16T07:14:08;14.50;73.00
4908;DHT22;64375;51.540;7.364;2023-03-16T07:16:40;14.80;77.30
4908;DHT22;64375;51.540;7.364;2023-03-16T07:19:08;14.90;77.70
4908;DHT22;64375;51.540;7.364;2023-03-16T07:21:37;15.00;69.50
4908;DHT22;64375;51.540;7.364;2023-03-16T07:24:10;14.60;77.90
4908;DHT22;64375;51.540;7.364;2023-03-16T07:26:38;14.70;77.40
4908;DHT22;64375;51.540;7.364;2023-03-16T07:29:09;14.80;78.60
4908;DHT22;64375;51.540;7.364;2023-03-16T07:31:38;14.70;78.30
4908;DHT22;64375;51.540;7.364;2023-03-16T07:34:06;14.90;78.40
4908;DHT22;64375;51.540;7.364;2023-03-16T07:36:33;15.10;78.20
4908;DHT22;64375;51.540;7.364;2023-03-16T07:39:02;14.90;78.10
4908;DHT22;64375;51.540;7.364;2023-03-16T07:41:31;14.90;78.90
4908;DHT22;64375;51.540;7.364;2023-03-16T07:43:59;15.00;77.70
4908;DHT22;64375;51.540;7.364;2023-03-16T07:46:27;14.80;76.90
4908;DHT22;64375;51.540;7.364;2023-03-16T07:48:55;14.90;78.80
4908;DHT22;64375;51.540;7.364;2023-03-16T07:51:26;15.00;75.80
4908;DHT22;64375;51.540;7.364;2023-03-16T07:53:57;14.80;72.60
4908;DHT22;64375;51.540;7.364;2023-03-16T07:56:27;14.80;73.10
4908;DHT22;64375;51.540;7.364;2023-03-16T07:59:19;14.80;74.20
4908;DHT22;64375;51.540;7.364;2023-03-16T08:01:47;15.00;74.80
4908;DHT22;64375;51.540;7.364;2023-03-16T08:04:18;15.10;74.50
4908;DHT22;64375;51.540;7.364;2023-03-16T08:06:52;14.80;65.80
4908;DHT22;64375;51.540;7.364;2023-03-16T08:09:33;14.50;65.20
4908;DHT22;64375;51.540;7.364;2023-03-16T08:12:01;14.60;67.90
4908;DHT22;64375;51.540;7.364;2023-03-16T08:14:33;14.70;69.90
4908;DHT22;64375;51.540;7.364;2023-03-16T08:17:05;14.70;71.00
4908;DHT22;64375;51.540;7.364;2023-03-16T08:19:36;14.90;72.00
4908;DHT22;64375;51.540;7.364;2023-03-16T08:22:11;15.00;70.90
4908;DHT22;64375;51.540;7.364;2023-03-16T08:24:39;15.00;73.50
4908;DHT22;64375;51.540;7.364;2023-03-16T08:27:08;15.00;71.80
4908;DHT22;64375;51.540;7.364;2023-03-16T08:29:40;14.90;74.30
4908;DHT22;64375;51.540;7.364;2023-03-16T08:32:08;14.80;68.30
4908;DHT22;64375;51.540;7.364;2023-03-16T08:34:36;14.90;75.10
4908;DHT22;64375;51.540;7.364;2023-03-16T08:37:05;14.90;74.50
4908;DHT22;64375;51.540;7.364;2023-03-16T08:39:36;15.00;75.30
4908;DHT22;64375;51.540;7.364;2023-03-16T08:42:10;14.80;74.90
4908;DHT22;64375;51.540;7.364;2023-03-16T08:44:42;14.90;75.60
4908;DHT22;64375;51.540;7.364;2023-03-16T08:47:13;15.10;75.90
4908;DHT22;64375;51.540;7.364;2023-03-16T08:49:41;15.10;75.20
4908;DHT22;64375;51.540;7.364;2023-03-16T08:52:10;15.20;76.20
4908;DHT22;64375;51.540;7.364;2023-03-16T08:54:38;15.10;75.90
4908;DHT22;64375;51.540;7.364;2023-03-16T08:57:18;15.30;76.60
4908;DHT22;64375;51.540;7.364;2023-03-16T08:59:48;15.00;76.20
4908;DHT22;64375;51.540;7.364;2023-03-16T09:02:19;14.80;74.80
4908;DHT22;64375;51.540;7.364;2023-03-16T09:04:47;15.20;77.20
4908;DHT22;64375;51.540;7.364;2023-03-16T09:07:22;15.40;76.60
4908;DHT22;64375;51.540;7.364;2023-03-16T09:09:50;15.60;76.60
4908;DHT22;64375;51.540;7.364;2023-03-16T09:12:21;15.80;76.60
4908;DHT22;64375;51.540;7.364;2023-03-16T09:14:50;16.00;76.40
4908;DHT22;64375;51.540;7.364;2023-03-16T09:17:22;16.20;76.40
4908;DHT22;64375;51.540;7.364;2023-03-16T09:19:53;16.20;75.90
4908;DHT22;64375;51.540;7.364;2023-03-16T09:22:39;16.20;76.20
4908;DHT22;64375;51.540;7.364;2023-03-16T09:25:08;16.30;76.30
4908;DHT22;64375;51.540;7.364;2023-03-16T09:27:37;16.20;76.50
4908;DHT22;64375;51.540;7.364;2023-03-16T09:30:10;16.20;76.60
4908;DHT22;64375;51.540;7.364;2023-03-16T09:32:38;16.20;76.40
4908;DHT22;64375;51.540;7.364;2023-03-16T09:35:10;16.20;76.70
4908;DHT22;64375;51.540;7.364;2023-03-16T09:37:40;16.20;76.70
4908;DHT22;64375;51.540;7.364;2023-03-16T09:40:20;16.30;76.00
4908;DHT22;64375;51.540;7.364;2023-03-16T09:42:58;16.20;76.40
4908;DHT22;64375;51.540;7.364;2023-03-16T09:45:36;16.30;76.30
4908;DHT22;64375;51.540;7.364;2023-03-16T09:48:14;15.80;65.20
4908;DHT22;64375;51.540;7.364;2023-03-16T09:50:44;15.00;70.90
4908;DHT22;64375;51.540;7.364;2023-03-16T09:53:21;14.80;65.70
4908;DHT22;64375;51.540;7.364;2023-03-16T09:55:54;14.90;70.00
4908;DHT22;64375;51.540;7.364;2023-03-16T09:58:27;14.70;69.40
4908;DHT22;64375;51.540;7.364;2023-03-16T10:01:06;14.70;78.20
4908;DHT22;64375;51.540;7.364;2023-03-16T10:06:54;15.50;77.70
4908;DHT22;64375;51.540;7.364;2023-03-16T10:09:42;15.70;77.10
4908;DHT22;64375;51.540;7.364;2023-03-16T10:12:14;15.80;77.50
4908;DHT22;64375;51.540;7.364;2023-03-16T10:14:50;15.90;73.50
4908;DHT22;64375;51.540;7.364;2023-03-16T10:17:25;15.60;71.60
4908;DHT22;64375;51.540;7.364;2023-03-16T10:20:16;15.60;78.20
4908;DHT22;64375;51.540;7.364;2023-03-16T10:22:52;15.60;77.90
4908;DHT22;64375;51.540;7.364;2023-03-16T10:25:24;15.60;77.80
4908;DHT22;64375;51.540;7.364;2023-03-16T10:27:56;15.80;75.80
4908;DHT22;64375;51.540;7.364;2023-03-16T10:30:26;15.90;77.70
4908;DHT22;64375;51.540;7.364;2023-03-16T10:33:00;16.00;77.70
4908;DHT22;64375;51.540;7.364;2023-03-16T10:35:45;15.60;65.80
4908;DHT22;64375;51.540;7.364;2023-03-16T10:38:33;15.40;77.50
4908;DHT22;64375;51.540;7.364;2023-03-16T10:41:28;15.30;77.60
4908;DHT22;64375;51.540;7.364;2023-03-16T10:44:01;15.60;78.40
4908;DHT22;64375;51.540;7.364;2023-03-16T10:46:41;15.80;69.50
4908;DHT22;64375;51.540;7.364;2023-03-16T10:49:23;15.70;78.50
4908;DHT22;64375;51.540;7.364;2023-03-16T10:51:57;15.60;78.80
4908;DHT22;64375;51.540;7.364;2023-03-16T10:54:32;15.60;78.20
4908;DHT22;64375;51.540;7.364;2023-03-16T10:57:11;15.30;75.90
4908;DHT22;64375;51.540;7.364;2023-03-16T10:59:47;15.00;75.70
4908;DHT22;64375;51.540;7.364;2023-03-16T11:02:20;15.10;77.10
4908;DHT22;64375;51.540;7.364;2023-03-16T11:04:50;15.20;77.80
4908;DHT22;64375;51.540;7.364;2023-03-16T11:07:23;15.40;77.90
4908;DHT22;64375;51.540;7.364;2023-03-16T11:10:18;15.50;74.20
4908;DHT22;64375;51.540;7.364;2023-03-16T11:12:51;15.10;71.30
4908;DHT22;64375;51.540;7.364;2023-03-16T11:15:19;14.90;72.20
4908;DHT22;64375;51.540;7.364;2023-03-16T11:17:52;14.70;75.70
4908;DHT22;64375;51.540;7.364;2023-03-16T11:20:24;14.60;74.40
4908;DHT22;64375;51.540;7.364;2023-03-16T11:22:59;14.00;63.20
4908;DHT22;64375;51.540;7.364;2023-03-16T11:25:31;13.80;74.00
4908;DHT22;64375;51.540;7.364;2023-03-16T11:28:10;14.10;80.60
4908;DHT22;64375;51.540;7.364;2023-03-16T11:30:43;14.20;80.00
4908;DHT22;64375;51.540;7.364;2023-03-16T11:33:16;14.20;73.10
4908;DHT22;64375;51.540;7.364;2023-03-16T11:35:51;14.20;74.90
4908;DHT22;64375;51.540;7.364;2023-03-16T11:38:28;14.00;67.60
4908;DHT22;64375;51.540;7.364;2023-03-16T11:41:16;13.90;76.90
4908;DHT22;64375;51.540;7.364;2023-03-16T11:44:05;13.90;74.50
4908;DHT22;64375;51.540;7.364;2023-03-16T11:46:47;14.40;76.30
4908;DHT22;64375;51.540;7.364;2023-03-16T11:49:56;14.60;77.80
4908;DHT22;64375;51.540;7.364;2023-03-16T11:52:38;14.00;68.50
4908;DHT22;64375;51.540;7.364;2023-03-16T11:55:32;14.40;74.80
4908;DHT22;64375;51.540;7.364;2023-03-16T11:58:23;14.50;76.90
4908;DHT22;64375;51.540;7.364;2023-03-16T12:01:02;14.20;67.60
4908;DHT22;64375;51.540;7.364;2023-03-16T12:06:48;13.60;66.90
4908;DHT22;64375;51.540;7.364;2023-03-16T12:09:47;14.00;77.20
4908;DHT22;64375;51.540;7.364;2023-03-16T12:12:33;13.40;64.30
4908;DHT22;64375;51.540;7.364;2023-03-16T12:15:18;13.30;76.50
4908;DHT22;64375;51.540;7.364;2023-03-16T12:17:48;13.40;77.10
4908;DHT22;64375;51.540;7.364;2023-03-16T12:20:22;13.50;76.20
4908;DHT22;64375;51.540;7.364;2023-03-16T12:22:54;14.30;80.40
4908;DHT22;64375;51.540;7.364;2023-03-16T12:25:31;14.50;69.10
4908;DHT22;64375;51.540;7.364;2023-03-16T12:28:02;14.70;78.80
4908;DHT22;64375;51.540;7.364;2023-03-16T12:30:38;15.20;75.60
4908;DHT22;64375;51.540;7.364;2023-03-16T12:33:20;15.30;65.40
4908;DHT22;64375;51.540;7.364;2023-03-16T12:36:02;15.70;76.00
4908;DHT22;64375;51.540;7.364;2023-03-16T12:38:43;15.80;65.50
4908;DHT22;64375;51.540;7.364;2023-03-16T12:41:22;15.30;63.40
4908;DHT22;64375;51.540;7.364;2023-03-16T12:44:08;15.00;66.50
4908;DHT22;64375;51.540;7.364;2023-03-16T12:46:47;15.00;74.30
4908;DHT22;64375;51.540;7.364;2023-03-16T12:49:21;15.60;70.80
4908;DHT22;64375;51.540;7.364;2023-03-16T12:51:58;15.60;72.80
4908;DHT22;64375;51.540;7.364;2023-03-16T12:54:27;15.80;77.40
4908;DHT22;64375;51.540;7.364;2023-03-16T12:57:04;16.00;75.50
4908;DHT22;64375;51.540;7.364;2023-03-16T12:59:39;15.80;70.20
4908;DHT22;64375;51.540;7.364;2023-03-16T13:02:13;15.50;62.70
4908;DHT22;64375;51.540;7.364;2023-03-16T13:04:44;15.40;70.00
4908;DHT22;64375;51.540;7.364;2023-03-16T13:07:22;15.30;75.60
4908;DHT22;64375;51.540;7.364;2023-03-16T13:09:53;15.40;64.50
4908;DHT22;64375;51.540;7.364;2023-03-16T13:12:30;15.40;75.80
4908;DHT22;64375;51.540;7.364;2023-03-16T13:15:24;15.70;74.20
4908;DHT22;64375;51.540;7.364;2023-03-16T13:18:27;14.90;61.00
4908;DHT22;64375;51.540;7.364;2023-03-16T13:21:14;15.00;67.10
4908;DHT22;64375;51.540;7.364;2023-03-16T13:23:52;15.10;65.00
4908;DHT22;64375;51.540;7.364;2023-03-16T13:26:39;14.80;74.70
4908;DHT22;64375;51.540;7.364;2023-03-16T13:29:22;14.40;63.60
4908;DHT22;64375;51.540;7.364;2023-03-16T13:31:52;14.10;70.40
4908;DHT22;64375;51.540;7.364;2023-03-16T13:34:26;14.50;75.20
4908;DHT22;64375;51.540;7.364;2023-03-16T13:36:59;14.50;68.00
4908;DHT22;64375;51.540;7.364;2023-03-16T13:39:29;14.80;64.70
4908;DHT22;64375;51.540;7.364;2023-03-16T13:41:59;14.80;64.10
4908;DHT22;64375;51.540;7.364;2023-03-16T13:44:31;14.50;67.50
4908;DHT22;64375;51.540;7.364;2023-03-16T13:47:03;14.70;68.80
4908;DHT22;64375;51.540;7.364;2023-03-16T13:49:42;15.00;69.60
4908;DHT22;64375;51.540;7.364;2023-03-16T13:52:13;15.90;72.60
4908;DHT22;64375;51.540;7.364;2023-03-16T13:54:49;16.00;70.40
4908;DHT22;64375;51.540;7.364;2023-03-16T13:57:20;15.50;60.10
4908;DHT22;64375;51.540;7.364;2023-03-16T13:59:50;14.70;61.10
4908;DHT22;64375;51.540;7.364;2023-03-16T14:02:24;15.20;74.00
4908;DHT22;64375;51.540;7.364;2023-03-16T14:04:55;15.30;65.70
4908;DHT22;64375;51.540;7.364;2023-03-16T14:07:23;15.30;72.40
4908;DHT22;64375;51.540;7.364;2023-03-16T14:09:58;16.00;74.50
4908;DHT22;64375;51.540;7.364;2023-03-16T14:12:32;16.20;67.50
4908;DHT22;64375;51.540;7.364;2023-03-16T14:15:04;16.10;64.90
4908;DHT22;64375;51.540;7.364;2023-03-16T14:17:36;16.20;74.30
4908;DHT22;64375;51.540;7.364;2023-03-16T14:20:05;16.30;72.90
4908;DHT22;64375;51.540;7.364;2023-03-16T14:22:37;16.50;72.70
4908;DHT22;64375;51.540;7.364;2023-03-16T14:25:25;16.50;71.10
4908;DHT22;64375;51.540;7.364;2023-03-16T14:28:06;16.10;66.60
4908;DHT22;64375;51.540;7.364;2023-03-16T14:30:35;16.40;73.50
4908;DHT22;64375;51.540;7.364;2023-03-16T14:33:05;15.70;64.20
4908;DHT22;64375;51.540;7.364;2023-03-16T14:35:54;15.60;71.00
4908;DHT22;64375;51.540;7.364;2023-03-16T14:38:30;15.60;69.60
4908;DHT22;64375;51.540;7.364;2023-03-16T14:41:02;15.60;74.90
4908;DHT22;64375;51.540;7.364;2023-03-16T14:43:35;15.90;66.40
4908;DHT22;64375;51.540;7.364;2023-03-16T14:46:06;16.10;74.30
4908;DHT22;64375;51.540;7.364;2023-03-16T14:48:34;16.30;67.50
4908;DHT22;64375;51.540;7.364;2023-03-16T14:51:19;16.40;74.50
4908;DHT22;64375;51.540;7.364;2023-03-16T14:53:57;16.90;75.30
4908;DHT22;64375;51.540;7.364;2023-03-16T14:56:32;16.80;69.80
4908;DHT22;64375;51.540;7.364;2023-03-16T14:59:09;16.40;60.30
4908;DHT22;64375;51.540;7.364;2023-03-16T15:01:48;16.40;71.00
4908;DHT22;64375;51.540;7.364;2023-03-16T15:04:24;16.20;68.70
4908;DHT22;64375;51.540;7.364;2023-03-16T15:07:19;16.10;63.20
4908;DHT22;64375;51.540;7.364;2023-03-16T15:09:54;16.20;68.60
4908;DHT22;64375;51.540;7.364;2023-03-16T15:12:22;16.20;74.30
4908;DHT22;64375;51.540;7.364;2023-03-16T15:14:57;16.30;68.20
4908;DHT22;64375;51.540;7.364;2023-03-16T15:17:55;16.50;71.00
4908;DHT22;64375;51.540;7.364;2023-03-16T15:20:28;16.60;70.00
4908;DHT22;64375;51.540;7.364;2023-03-16T15:22:59;16.60;73.40
4908;DHT22;64375;51.540;7.364;2023-03-16T15:25:33;16.90;75.30
4908;DHT22;64375;51.540;7.364;2023-03-16T15:28:13;17.00;74.10
4908;DHT22;64375;51.540;7.364;2023-03-16T15:30:45;17.00;71.90
4908;DHT22;64375;51.540;7.364;2023-03-16T15:33:15;17.20;73.30
4908;DHT22;64375;51.540;7.364;2023-03-16T15:35:48;16.90;70.70
4908;DHT22;64375;51.540;7.364;2023-03-16T15:38:20;16.90;69.20
4908;DHT22;64375;51.540;7.364;2023-03-16T15:40:49;16.40;65.30
4908;DHT22;64375;51.540;7.364;2023-03-16T15:43:19;16.50;64.60
4908;DHT22;64375;51.540;7.364;2023-03-16T15:45:50;16.70;72.90
4908;DHT22;64375;51.540;7.364;2023-03-16T15:48:27;17.00;71.40
4908;DHT22;64375;51.540;7.364;2023-03-16T15:50:57;16.90;68.80
4908;DHT22;64375;51.540;7.364;2023-03-16T15:53:32;17.00;73.80
4908;DHT22;64375;51.540;7.364;2023-03-16T15:56:03;17.10;72.30
4908;DHT22;64375;51.540;7.364;2023-03-16T15:58:36;17.20;71.00
4908;DHT22;64375;51.540;7.364;2023-03-16T16:01:05;17.10;72.30
4908;DHT22;64375;51.540;7.364;2023-03-16T16:03:52;17.30;74.70
4908;DHT22;64375;51.540;7.364;2023-03-16T16:06:27;17.40;73.60
4908;DHT22;64375;51.540;7.364;2023-03-16T16:08:59;17.20;70.50
4908;DHT22;64375;51.540;7.364;2023-03-16T16:11:30;17.10;66.70
4908;DHT22;64375;51.540;7.364;2023-03-16T16:14:04;16.90;65.30
4908;DHT22;64375;51.540;7.364;2023-03-16T16:16:37;17.00;67.50
4908;DHT22;64375;51.540;7.364;2023-03-16T16:19:11;16.80;61.50
4908;DHT22;64375;51.540;7.364;2023-03-16T16:21:39;17.00;66.40
4908;DHT22;64375;51.540;7.364;2023-03-16T16:24:08;17.00;71.10
4908;DHT22;64375;51.540;7.364;2023-03-16T16:26:39;16.60;64.00
4908;DHT22;64375;51.540;7.364;2023-03-16T16:29:22;16.50;72.10
4908;DHT22;64375;51.540;7.364;2023-03-16T16:31:51;16.60;72.10
4908;DHT22;64375;51.540;7.364;2023-03-16T16:34:22;16.80;69.50